createdAt,value
2023-02-03T00:01:42.160Z,1.80
2023-02-03T00:04:10.662Z,1.63
2023-02-03T00:06:38.958Z,1.60
2023-02-03T00:09:07.346Z,1.50
2023-02-03T00:11:35.653Z,1.50
2023-02-03T00:14:05.416Z,1.60
2023-02-03T00:16:35.327Z,1.47
2023-02-03T00:19:03.707Z,1.70
2023-02-03T00:21:31.941Z,1.37
2023-02-03T00:24:00.150Z,1.53
2023-02-03T00:26:28.725Z,1.73
2023-02-03T00:28:56.973Z,1.43
2023-02-03T00:31:26.296Z,1.53
2023-02-03T00:33:59.546Z,1.60
2023-02-03T00:36:28.301Z,1.30
2023-02-03T00:38:56.685Z,1.40
2023-02-03T00:41:25.302Z,1.40
2023-02-03T00:43:53.538Z,1.63
2023-02-03T00:46:21.754Z,1.40
2023-02-03T00:48:50.095Z,1.80
2023-02-03T00:51:19.831Z,1.77
2023-02-03T00:53:49.051Z,1.60
2023-02-03T00:56:17.294Z,1.40
2023-02-03T00:58:45.617Z,1.53
2023-02-03T01:01:13.939Z,1.50
2023-02-03T01:03:42.237Z,1.50
2023-02-03T01:06:14.798Z,1.60
2023-02-03T01:08:44.993Z,1.77
2023-02-03T01:11:17.150Z,1.50
2023-02-03T01:13:46.758Z,1.83
2023-02-03T01:16:17.959Z,1.30
2023-02-03T01:18:47.090Z,1.50
2023-02-03T01:21:18.511Z,1.30
2023-02-03T01:23:48.654Z,1.57
2023-02-03T01:26:19.984Z,1.50
2023-02-03T01:28:53.750Z,1.40
2023-02-03T01:31:25.023Z,1.50
2023-02-03T01:33:54.661Z,1.30
2023-02-03T01:36:26.025Z,1.47
2023-02-03T01:38:55.997Z,1.63
2023-02-03T01:41:28.773Z,1.73
2023-02-03T01:44:00.561Z,1.30
2023-02-03T01:46:34.585Z,1.50
2023-02-03T01:49:11.000Z,1.40
2023-02-03T01:51:42.492Z,1.10
2023-02-03T01:54:19.579Z,1.47
2023-02-03T01:56:53.614Z,1.50
2023-02-03T01:59:23.702Z,1.20
2023-02-03T02:01:53.461Z,1.47
2023-02-03T02:04:23.586Z,1.70
2023-02-03T02:06:52.143Z,1.90
2023-02-03T02:09:21.784Z,1.50
2023-02-03T02:11:49.992Z,2.00
2023-02-03T02:14:18.393Z,1.20
2023-02-03T02:16:56.634Z,1.40
2023-02-03T02:20:07.701Z,1.33
2023-02-03T02:22:48.654Z,1.30
2023-02-03T02:25:53.086Z,1.70
2023-02-03T02:28:54.443Z,1.80
2023-02-03T02:31:59.208Z,1.30
2023-02-03T02:34:46.231Z,1.60
2023-02-03T02:37:25.804Z,1.60
2023-02-03T02:40:01.854Z,1.47
2023-02-03T02:42:37.993Z,1.40
2023-02-03T02:45:13.436Z,1.50
2023-02-03T02:47:43.339Z,1.30
2023-02-03T02:50:19.659Z,1.50
2023-02-03T02:52:50.105Z,1.63
2023-02-03T02:55:24.703Z,1.37
2023-02-03T02:57:57.138Z,1.40
2023-02-03T03:00:26.777Z,1.50
2023-02-03T03:02:57.593Z,1.30
2023-02-03T03:05:27.438Z,1.50
2023-02-03T03:08:02.234Z,1.57
2023-02-03T03:10:33.764Z,1.70
2023-02-03T03:13:06.667Z,1.60
2023-02-03T03:15:36.143Z,1.40
2023-02-03T03:18:12.920Z,1.70
2023-02-03T03:20:44.339Z,1.63
2023-02-03T03:23:20.724Z,1.80
2023-02-03T03:25:55.589Z,1.80
2023-02-03T03:28:38.087Z,1.67
2023-02-03T03:31:06.554Z,1.50
2023-02-03T03:33:36.260Z,1.77
2023-02-03T03:36:13.342Z,2.17
2023-02-03T03:38:47.414Z,1.70
2023-02-03T03:41:23.804Z,1.73
2023-02-03T03:43:54.375Z,1.97
2023-02-03T03:46:27.644Z,1.67
2023-02-03T03:49:01.207Z,2.03
2023-02-03T03:51:35.341Z,1.90
2023-02-03T03:54:09.668Z,1.80
2023-02-03T03:56:45.207Z,1.90
2023-02-03T03:59:17.656Z,1.70
2023-02-03T04:01:46.726Z,1.73
2023-02-03T04:04:18.018Z,1.87
2023-02-03T04:06:46.229Z,2.10
2023-02-03T04:09:14.525Z,1.87
2023-02-03T04:12:00.099Z,2.00
2023-02-03T04:14:30.046Z,1.77
2023-02-03T04:16:58.566Z,1.67
2023-02-03T04:19:28.582Z,1.63
2023-02-03T04:21:56.823Z,1.50
2023-02-03T04:24:25.066Z,1.60
2023-02-03T04:26:53.524Z,1.40
2023-02-03T04:29:21.740Z,1.77
2023-02-03T04:31:50.099Z,1.63
2023-02-03T04:34:18.465Z,1.60
2023-02-03T04:36:48.106Z,1.63
2023-02-03T04:39:16.360Z,1.70
2023-02-03T04:41:44.638Z,1.50
2023-02-03T04:44:12.842Z,1.60
2023-02-03T04:46:41.085Z,1.83
2023-02-03T04:49:11.685Z,1.77
2023-02-03T04:51:40.011Z,1.43
2023-02-03T04:54:09.975Z,1.80
2023-02-03T04:56:38.963Z,1.63
2023-02-03T04:59:07.195Z,1.70
2023-02-03T05:01:35.602Z,1.70
2023-02-03T05:04:03.930Z,1.40
2023-02-03T05:06:32.868Z,1.47
2023-02-03T05:09:01.226Z,1.50
2023-02-03T05:11:31.124Z,1.20
2023-02-03T05:13:59.389Z,1.47
2023-02-03T05:16:27.846Z,1.60
2023-02-03T05:18:56.136Z,1.70
2023-02-03T05:21:24.376Z,1.60
2023-02-03T05:23:52.602Z,1.20
2023-02-03T05:26:20.825Z,1.43
2023-02-03T05:28:51.126Z,1.20
2023-02-03T05:31:20.751Z,1.50
2023-02-03T05:33:49.056Z,1.30
2023-02-03T05:36:17.316Z,1.20
2023-02-03T05:38:45.524Z,1.03
2023-02-03T05:41:31.785Z,1.50
2023-02-03T05:44:01.423Z,1.60
2023-02-03T05:46:29.674Z,1.67
2023-02-03T05:48:57.924Z,1.10
2023-02-03T05:51:26.175Z,1.43
2023-02-03T05:53:54.401Z,1.33
2023-02-03T05:56:22.632Z,1.20
2023-02-03T05:58:53.251Z,1.60
2023-02-03T06:01:22.955Z,1.40
2023-02-03T06:03:51.325Z,1.40
2023-02-03T06:06:20.066Z,1.53
2023-02-03T06:08:48.299Z,1.07
2023-02-03T06:11:16.577Z,1.10
2023-02-03T06:13:44.883Z,1.30
2023-02-03T06:16:13.175Z,1.40
2023-02-03T06:18:42.857Z,1.40
2023-02-03T06:21:11.096Z,1.33
2023-02-03T06:23:39.286Z,1.07
2023-02-03T06:26:07.529Z,1.23
2023-02-03T06:28:35.749Z,1.40
2023-02-03T06:31:04.056Z,1.43
2023-02-03T06:33:32.703Z,1.27
2023-02-03T06:36:02.354Z,1.40
2023-02-03T06:38:30.566Z,1.30
2023-02-03T06:40:58.858Z,1.20
2023-02-03T06:43:27.162Z,1.07
2023-02-03T06:45:55.434Z,1.17
2023-02-03T06:48:23.923Z,1.23
2023-02-03T06:50:52.187Z,1.77
2023-02-03T06:53:21.776Z,2.63
2023-02-03T06:55:49.999Z,3.30
2023-02-03T06:58:18.187Z,3.50
2023-02-03T07:00:46.442Z,2.80
2023-02-03T07:03:14.638Z,2.93
2023-02-03T07:05:42.888Z,2.37
2023-02-03T07:08:11.133Z,2.50
2023-02-03T07:10:41.840Z,2.27
2023-02-03T07:13:10.242Z,2.47
2023-02-03T07:15:38.607Z,1.87
2023-02-03T07:18:06.996Z,1.30
2023-02-03T07:20:35.239Z,1.63
2023-02-03T07:23:04.456Z,1.23
2023-02-03T07:25:33.030Z,1.80
2023-02-03T07:28:02.778Z,1.60
2023-02-03T07:30:31.291Z,1.80
2023-02-03T07:32:59.658Z,3.07
2023-02-03T07:35:28.230Z,2.50
2023-02-03T07:37:56.454Z,2.60
2023-02-03T07:40:24.837Z,1.77
2023-02-03T07:42:53.144Z,1.47
2023-02-03T07:45:24.806Z,1.43
2023-02-03T07:47:53.142Z,1.63
2023-02-03T07:50:21.463Z,1.93
2023-02-03T07:52:52.242Z,2.77
2023-02-03T07:55:20.582Z,1.70
2023-02-03T07:57:49.034Z,1.37
2023-02-03T08:00:18.995Z,1.40
2023-02-03T08:02:48.721Z,1.50
2023-02-03T08:05:18.426Z,1.60
2023-02-03T08:07:47.371Z,2.10
2023-02-03T08:10:17.933Z,1.93
2023-02-03T08:12:46.798Z,1.50
2023-02-03T08:15:15.858Z,1.70
2023-02-03T08:17:44.578Z,1.27
2023-02-03T08:20:14.557Z,2.37
2023-02-03T08:22:42.789Z,2.67
2023-02-03T08:25:11.965Z,1.77
2023-02-03T08:27:42.070Z,1.77
2023-02-03T08:30:15.014Z,2.47
2023-02-03T08:32:43.400Z,3.57
2023-02-03T08:35:13.014Z,5.03
2023-02-03T08:37:41.305Z,2.53
2023-02-03T08:40:12.070Z,2.20
2023-02-03T08:42:40.486Z,1.80
2023-02-03T08:45:09.917Z,2.27
2023-02-03T08:47:39.272Z,2.40
2023-02-03T08:50:09.565Z,1.97
2023-02-03T08:52:39.204Z,2.00
2023-02-03T08:55:08.130Z,2.10
2023-02-03T08:57:37.619Z,1.97
2023-02-03T09:00:07.708Z,2.00
2023-02-03T09:02:36.007Z,2.73
2023-02-03T09:05:04.667Z,2.83
2023-02-03T09:07:32.967Z,1.77
2023-02-03T09:10:02.667Z,2.07
2023-02-03T09:12:30.872Z,6.67
2023-02-03T09:14:59.287Z,2.70
2023-02-03T09:17:28.072Z,2.50
2023-02-03T09:19:56.383Z,2.67
2023-02-03T09:22:24.712Z,3.40
2023-02-03T09:24:53.033Z,2.97
2023-02-03T09:27:22.627Z,2.50
2023-02-03T09:29:50.864Z,3.23
2023-02-03T09:32:19.197Z,2.30
2023-02-03T09:34:47.399Z,1.83
2023-02-03T09:37:15.634Z,2.10
2023-02-03T09:39:43.877Z,1.33
2023-02-03T09:42:52.496Z,2.47
2023-02-03T09:45:27.284Z,2.30
2023-02-03T09:47:59.842Z,2.23
2023-02-03T09:50:32.745Z,2.20
2023-02-03T09:53:07.368Z,2.90
2023-02-03T09:55:40.492Z,2.03
2023-02-03T09:58:14.854Z,2.00
2023-02-03T10:00:46.000Z,2.20
2023-02-03T10:03:27.186Z,2.87
2023-02-03T10:06:09.537Z,3.20
2023-02-03T10:09:11.264Z,2.90
2023-02-03T10:12:12.103Z,1.23
2023-02-03T10:15:01.171Z,1.70
2023-02-03T10:17:34.816Z,1.60
2023-02-03T10:20:10.262Z,1.20
2023-02-03T10:22:45.945Z,1.50
2023-02-03T10:25:24.874Z,2.10
2023-02-03T10:27:58.576Z,1.77
2023-02-03T10:30:33.145Z,2.33
2023-02-03T10:33:10.897Z,2.23
2023-02-03T10:35:56.416Z,1.50
2023-02-03T10:38:50.939Z,1.20
2023-02-03T10:41:20.984Z,1.10
2023-02-03T10:43:52.811Z,1.00
2023-02-03T10:46:29.670Z,1.20
2023-02-03T10:48:58.551Z,1.10
2023-02-03T10:51:30.605Z,0.90
2023-02-03T10:53:59.106Z,1.20
2023-02-03T10:56:32.062Z,1.90
2023-02-03T10:59:02.173Z,1.80
2023-02-03T11:01:45.063Z,1.40
2023-02-03T11:04:28.055Z,1.10
2023-02-03T11:06:58.709Z,1.70
2023-02-03T11:09:34.195Z,1.50
2023-02-03T11:12:14.497Z,1.50
2023-02-03T11:14:45.176Z,1.30
2023-02-03T11:17:20.375Z,1.10
2023-02-03T11:19:51.070Z,0.73
2023-02-03T11:22:30.365Z,0.80
2023-02-03T11:24:59.793Z,0.90
2023-02-03T11:27:31.658Z,0.70
2023-02-03T11:30:15.624Z,0.83
2023-02-03T11:32:47.841Z,1.10
2023-02-03T11:35:19.922Z,0.80
2023-02-03T11:37:51.323Z,1.00
2023-02-03T11:40:28.666Z,0.87
2023-02-03T11:43:07.098Z,0.90
2023-02-03T11:45:42.334Z,1.70
2023-02-03T11:48:26.500Z,1.30
2023-02-03T11:51:03.907Z,1.13
2023-02-03T11:53:56.282Z,3.70
2023-02-03T11:56:50.600Z,1.80
2023-02-03T11:59:54.995Z,1.20
2023-02-03T12:03:03.913Z,1.93
2023-02-03T12:06:00.168Z,1.37
2023-02-03T12:08:54.353Z,1.30
2023-02-03T12:11:39.646Z,1.23
2023-02-03T12:14:30.011Z,1.10
2023-02-03T12:17:30.208Z,1.00
2023-02-03T12:20:19.722Z,0.97
2023-02-03T12:23:02.011Z,0.90
2023-02-03T12:25:45.594Z,0.87
2023-02-03T12:28:34.303Z,1.17
2023-02-03T12:31:10.156Z,0.93
2023-02-03T12:33:44.630Z,1.20
2023-02-03T12:36:19.491Z,1.03
2023-02-03T12:38:56.796Z,1.10
2023-02-03T12:41:30.399Z,1.70
2023-02-03T12:44:05.315Z,1.17
2023-02-03T12:46:41.166Z,0.83
2023-02-03T12:49:20.672Z,0.90
2023-02-03T12:51:53.332Z,1.00
2023-02-03T12:54:38.775Z,0.70
2023-02-03T12:57:21.126Z,1.20
2023-02-03T13:00:07.075Z,1.77
2023-02-03T13:02:51.324Z,2.17
2023-02-03T13:05:27.947Z,3.83
2023-02-03T13:08:08.851Z,2.43
2023-02-03T13:10:45.102Z,1.50
2023-02-03T13:13:19.041Z,0.70
2023-02-03T13:15:52.555Z,0.87
2023-02-03T13:18:29.429Z,1.03
2023-02-03T13:20:58.311Z,0.90
2023-02-03T13:23:26.998Z,1.93
2023-02-03T13:26:25.743Z,1.40
2023-02-03T13:29:15.389Z,1.50
2023-02-03T13:31:53.718Z,1.30
2023-02-03T13:34:48.415Z,0.93
2023-02-03T13:37:57.246Z,0.90
2023-02-03T13:40:39.045Z,1.00
2023-02-03T13:43:22.998Z,1.00
2023-02-03T13:46:01.007Z,0.97
2023-02-03T13:48:32.261Z,1.10
2023-02-03T13:51:08.733Z,1.00
2023-02-03T13:53:40.421Z,0.90
2023-02-03T13:56:16.468Z,1.03
2023-02-03T13:59:02.932Z,1.03
2023-02-03T14:01:38.573Z,0.87
2023-02-03T14:04:09.118Z,0.90
2023-02-03T14:07:02.839Z,1.00
2023-02-03T14:09:49.675Z,0.90
2023-02-03T14:13:02.320Z,0.90
2023-02-03T14:15:36.538Z,1.10
2023-02-03T14:18:33.857Z,0.83
2023-02-03T14:21:16.362Z,0.90
2023-02-03T14:24:03.932Z,0.60
2023-02-03T14:26:38.662Z,0.83
2023-02-03T14:29:09.350Z,0.90
2023-02-03T14:31:59.951Z,0.67
2023-02-03T14:34:42.695Z,0.80
2023-02-03T14:37:24.701Z,0.67
2023-02-03T14:40:31.933Z,0.70
2023-02-03T14:43:26.519Z,0.50
2023-02-03T14:46:23.010Z,0.67
2023-02-03T14:49:13.014Z,0.67
2023-02-03T14:52:06.150Z,0.43
2023-02-03T14:55:05.137Z,0.50
2023-02-03T14:57:41.715Z,0.90
2023-02-03T15:00:31.765Z,0.77
2023-02-03T15:03:30.315Z,0.80
2023-02-03T15:06:03.569Z,0.70
2023-02-03T15:08:44.571Z,0.83
2023-02-03T15:11:35.089Z,0.70
2023-02-03T15:14:22.652Z,0.80
2023-02-03T15:16:57.542Z,0.80
2023-02-03T15:19:29.853Z,0.77
2023-02-03T15:21:59.588Z,0.80
2023-02-03T15:24:36.220Z,0.70
2023-02-03T15:27:04.745Z,1.00
2023-02-03T15:29:36.462Z,0.70
2023-02-03T15:32:11.407Z,2.20
2023-02-03T15:34:44.274Z,2.10
2023-02-03T15:37:19.939Z,1.40
2023-02-03T15:40:02.309Z,3.20
2023-02-03T15:42:35.627Z,2.50
2023-02-03T15:45:09.724Z,2.70
2023-02-03T15:47:43.757Z,1.10
2023-02-03T15:50:28.809Z,1.90
2023-02-03T15:53:05.812Z,0.90
2023-02-03T15:55:39.258Z,1.13
2023-02-03T15:58:08.204Z,0.77
2023-02-03T16:00:40.790Z,1.00
2023-02-03T16:03:21.517Z,1.10
2023-02-03T16:05:50.587Z,0.80
2023-02-03T16:08:40.215Z,1.20
2023-02-03T16:11:31.052Z,0.70
2023-02-03T16:14:01.466Z,0.67
2023-02-03T16:16:34.440Z,0.73
2023-02-03T16:19:05.542Z,1.37
2023-02-03T16:21:37.285Z,0.60
2023-02-03T16:24:07.899Z,0.80
2023-02-03T16:26:38.513Z,0.83
2023-02-03T16:29:33.774Z,0.93
2023-02-03T16:32:19.685Z,0.80
2023-02-03T16:35:06.123Z,0.90
2023-02-03T16:37:54.284Z,0.80
2023-02-03T16:40:42.606Z,0.67
2023-02-03T16:43:32.209Z,0.80
2023-02-03T16:46:19.494Z,0.70
2023-02-03T16:49:05.229Z,0.73
2023-02-03T16:51:40.911Z,0.60
2023-02-03T16:54:14.167Z,0.43
2023-02-03T16:56:43.931Z,0.60
2023-02-03T16:59:12.422Z,0.50
2023-02-03T17:01:41.200Z,0.70
2023-02-03T17:04:11.012Z,0.60
2023-02-03T17:06:39.377Z,0.60
2023-02-03T17:09:07.859Z,0.70
2023-02-03T17:11:36.099Z,0.70
2023-02-03T17:14:05.740Z,0.50
2023-02-03T17:16:34.105Z,0.70
2023-02-03T17:19:02.566Z,0.60
2023-02-03T17:21:31.234Z,0.63
2023-02-03T17:24:00.535Z,0.53
2023-02-03T17:26:28.961Z,0.60
2023-02-03T17:29:02.915Z,0.70
2023-02-03T17:31:33.476Z,0.50
2023-02-03T17:34:01.778Z,0.60
2023-02-03T17:36:30.215Z,0.50
2023-02-03T17:55:31.589Z,0.50
2023-02-03T17:58:00.167Z,0.80
2023-02-03T18:00:28.765Z,0.50
2023-02-03T18:02:58.474Z,0.70
2023-02-03T18:05:26.888Z,0.40
2023-02-03T18:07:55.177Z,0.67
2023-02-03T18:10:23.449Z,0.77
2023-02-03T18:12:51.734Z,0.60
2023-02-03T18:15:20.211Z,0.60
2023-02-03T18:17:48.513Z,0.60
2023-02-03T18:20:18.486Z,0.70
2023-02-03T18:22:46.753Z,0.50
2023-02-03T18:25:17.208Z,0.60
2023-02-03T18:27:45.612Z,0.53
2023-02-03T18:30:17.622Z,0.80
2023-02-03T18:32:47.137Z,0.70
2023-02-03T18:35:18.166Z,0.60
2023-02-03T18:37:46.478Z,0.70
2023-02-03T18:40:14.957Z,0.77
2023-02-03T18:42:43.238Z,0.80
2023-02-03T18:45:12.824Z,0.70
2023-02-03T18:47:41.083Z,0.67
2023-02-03T18:50:10.147Z,0.63
2023-02-03T18:52:39.789Z,0.60
2023-02-03T18:55:09.443Z,0.53
2023-02-03T18:57:37.685Z,0.60
2023-02-03T19:00:08.387Z,0.50
2023-02-03T19:02:36.732Z,0.50
2023-02-03T19:05:05.477Z,0.60
2023-02-03T19:07:33.773Z,0.70
2023-02-03T19:10:03.443Z,0.70
2023-02-03T19:12:31.723Z,0.60
2023-02-03T19:14:59.994Z,0.80
2023-02-03T19:17:28.337Z,0.63
2023-02-03T19:19:56.602Z,0.50
2023-02-03T19:22:24.849Z,0.90
2023-02-03T19:24:53.161Z,0.80
2023-02-03T19:27:22.846Z,0.80
2023-02-03T19:29:51.137Z,0.90
2023-02-03T19:32:19.542Z,0.60
2023-02-03T19:34:47.864Z,0.43
2023-02-03T19:37:16.228Z,0.80
2023-02-03T19:39:45.042Z,0.63
2023-02-03T19:42:13.346Z,0.60
2023-02-03T19:44:43.045Z,0.70
2023-02-03T19:47:11.316Z,0.60
2023-02-03T19:49:39.631Z,0.67
2023-02-03T19:52:10.148Z,0.70
2023-02-03T19:54:38.408Z,0.97
2023-02-03T19:57:06.738Z,0.70
2023-02-03T19:59:35.167Z,0.70
2023-02-03T20:02:13.634Z,0.63
2023-02-03T20:04:42.598Z,0.87
2023-02-03T20:07:11.030Z,0.70
2023-02-03T20:09:39.282Z,0.63
2023-02-03T20:12:07.720Z,0.60
2023-02-03T20:14:36.054Z,1.33
2023-02-03T20:17:07.522Z,0.97
2023-02-03T20:19:35.823Z,0.80
2023-02-03T20:22:04.345Z,0.60
2023-02-03T20:24:32.603Z,1.23
2023-02-03T20:27:00.919Z,0.60
2023-02-03T20:29:29.229Z,0.60
2023-02-03T20:31:58.651Z,0.80
2023-02-03T20:34:28.770Z,1.10
2023-02-03T20:36:58.551Z,0.80
2023-02-03T20:39:27.037Z,1.10
2023-02-03T20:41:55.931Z,1.60
2023-02-03T20:44:24.196Z,0.93
2023-02-03T20:46:53.392Z,0.90
2023-02-03T20:49:21.849Z,1.60
2023-02-03T20:51:51.659Z,1.40
2023-02-03T20:54:22.569Z,1.20
2023-02-03T20:56:50.942Z,0.90
2023-02-03T20:59:20.715Z,1.20
2023-02-03T21:01:50.580Z,0.93
2023-02-03T21:04:37.942Z,0.80
2023-02-03T21:07:15.013Z,0.50
2023-02-03T21:09:43.445Z,0.80
2023-02-03T21:12:13.570Z,0.80
2023-02-03T21:14:44.974Z,0.87
2023-02-03T21:17:19.160Z,0.87
2023-02-03T21:19:48.141Z,0.70
2023-02-03T21:22:24.478Z,0.70
2023-02-03T21:24:56.347Z,0.90
2023-02-03T21:27:28.593Z,0.70
2023-02-03T21:29:58.097Z,0.80
2023-02-03T21:32:34.823Z,0.80
2023-02-03T21:35:03.127Z,0.70
2023-02-03T21:37:43.192Z,0.70
2023-02-03T21:40:27.330Z,0.73
2023-02-03T21:42:56.578Z,0.70
2023-02-03T21:45:36.283Z,0.47
2023-02-03T21:48:30.903Z,0.70
2023-02-03T21:51:03.600Z,0.60
2023-02-03T21:53:36.097Z,0.60
2023-02-03T21:56:19.295Z,0.50
2023-02-03T21:58:48.773Z,0.30
2023-02-03T22:01:18.388Z,0.40
2023-02-03T22:03:50.256Z,0.63
2023-02-03T22:06:28.831Z,0.50
2023-02-03T22:08:59.881Z,0.50
2023-02-03T22:11:30.438Z,0.73
2023-02-03T22:13:59.023Z,0.87
2023-02-03T22:16:29.084Z,0.63
2023-02-03T22:18:57.392Z,0.80
2023-02-03T22:21:26.133Z,1.20
2023-02-03T22:23:54.462Z,1.10
2023-02-03T22:26:24.154Z,1.60
2023-02-03T22:28:52.430Z,1.27
2023-02-03T22:31:21.513Z,1.20
2023-02-03T22:33:50.070Z,1.30
2023-02-03T22:36:18.485Z,1.40
2023-02-03T22:38:46.869Z,1.57
2023-02-03T22:41:15.311Z,1.60
2023-02-03T22:43:45.160Z,1.50
2023-02-03T22:46:13.614Z,1.57
2023-02-03T22:48:41.999Z,1.33
2023-02-03T22:51:10.353Z,1.50
2023-02-03T22:53:39.855Z,1.70
2023-02-03T22:56:08.538Z,1.60
2023-02-03T22:58:36.864Z,2.53
2023-02-03T23:01:06.835Z,1.90
2023-02-03T23:03:35.200Z,1.63
2023-02-03T23:06:03.582Z,1.77
2023-02-03T23:08:32.354Z,1.97
2023-02-03T23:11:00.808Z,2.10
2023-02-03T23:13:29.144Z,1.80
2023-02-03T23:15:57.616Z,1.90
2023-02-03T23:18:27.579Z,1.97
2023-02-03T23:20:55.929Z,2.10
2023-02-03T23:23:24.306Z,1.97
2023-02-03T23:25:52.614Z,1.90
2023-02-03T23:28:21.046Z,1.80
2023-02-03T23:30:49.438Z,1.70
2023-02-03T23:33:17.783Z,2.33
2023-02-03T23:35:46.584Z,2.50
2023-02-03T23:38:16.175Z,2.20
2023-02-03T23:40:45.816Z,1.73
2023-02-03T23:43:14.242Z,2.07
2023-02-03T23:45:42.799Z,2.03
2023-02-03T23:48:11.143Z,2.37
2023-02-03T23:50:39.695Z,2.47
2023-02-03T23:53:09.524Z,2.00
2023-02-03T23:55:37.825Z,1.90
2023-02-03T23:58:06.207Z,2.47
